createdAt,value
2023-04-26T00:00:29.192Z,1.50
2023-04-26T00:03:01.283Z,1.20
2023-04-26T00:05:30.102Z,1.37
2023-04-26T00:07:58.459Z,1.37
2023-04-26T00:10:26.889Z,1.40
2023-04-26T00:13:02.139Z,1.67
2023-04-26T00:15:30.934Z,1.37
2023-04-26T00:18:03.718Z,1.20
2023-04-26T00:20:32.444Z,1.50
2023-04-26T00:23:02.970Z,1.73
2023-04-26T00:25:31.293Z,1.63
2023-04-26T00:28:02.145Z,1.40
2023-04-26T00:30:30.588Z,1.50
2023-04-26T00:33:02.060Z,1.70
2023-04-26T00:35:31.061Z,1.47
2023-04-26T00:38:00.778Z,1.70
2023-04-26T00:40:29.131Z,1.40
2023-04-26T00:43:01.436Z,1.60
2023-04-26T00:45:29.854Z,1.90
2023-04-26T00:47:58.342Z,1.57
2023-04-26T00:50:28.536Z,1.87
2023-04-26T00:52:57.690Z,1.97
2023-04-26T00:55:27.160Z,2.20
2023-04-26T00:57:55.693Z,1.70
2023-04-26T01:00:24.256Z,2.10
2023-04-26T01:02:52.961Z,1.90
2023-04-26T01:05:21.697Z,1.87
2023-04-26T01:07:51.888Z,1.80
2023-04-26T01:10:20.329Z,1.80
2023-04-26T01:12:49.638Z,1.80
2023-04-26T01:15:18.185Z,1.90
2023-04-26T01:17:48.019Z,1.60
2023-04-26T01:20:16.466Z,1.60
2023-04-26T01:22:47.207Z,2.00
2023-04-26T01:25:17.199Z,1.47
2023-04-26T01:27:45.887Z,1.70
2023-04-26T01:30:14.392Z,1.50
2023-04-26T01:32:42.752Z,1.30
2023-04-26T01:35:11.135Z,1.97
2023-04-26T01:37:39.681Z,1.80
2023-04-26T01:40:11.301Z,1.87
2023-04-26T01:42:49.664Z,1.70
2023-04-26T01:45:18.514Z,2.10
2023-04-26T01:47:47.067Z,1.80
2023-04-26T01:50:15.508Z,1.93
2023-04-26T01:52:43.832Z,2.20
2023-04-26T01:55:13.573Z,2.00
2023-04-26T01:57:41.953Z,2.00
2023-04-26T02:00:11.451Z,2.00
2023-04-26T02:02:39.877Z,1.90
2023-04-26T02:05:12.221Z,2.00
2023-04-26T02:07:40.669Z,2.03
2023-04-26T02:10:10.314Z,2.27
2023-04-26T02:12:40.605Z,2.13
2023-04-26T02:15:15.258Z,2.50
2023-04-26T02:17:55.620Z,2.60
2023-04-26T02:20:24.239Z,2.67
2023-04-26T02:23:04.392Z,2.40
2023-04-26T02:25:33.220Z,2.27
2023-04-26T02:28:04.721Z,2.20
2023-04-26T02:30:33.080Z,2.40
2023-04-26T02:33:04.966Z,2.60
2023-04-26T02:35:33.359Z,2.40
2023-04-26T02:38:03.745Z,2.57
2023-04-26T02:40:32.270Z,2.10
2023-04-26T02:43:05.237Z,2.33
2023-04-26T02:45:33.638Z,2.20
2023-04-26T02:48:04.017Z,2.40
2023-04-26T02:50:32.435Z,2.47
2023-04-26T02:53:09.423Z,2.40
2023-04-26T02:55:38.163Z,2.60
2023-04-26T02:58:07.939Z,2.60
2023-04-26T03:00:36.300Z,2.53
2023-04-26T03:03:05.042Z,2.40
2023-04-26T03:05:33.642Z,2.40
2023-04-26T03:08:04.237Z,3.73
2023-04-26T03:10:32.762Z,2.93
2023-04-26T03:13:04.490Z,2.90
2023-04-26T03:15:35.042Z,2.67
2023-04-26T03:18:04.240Z,2.73
2023-04-26T03:20:32.626Z,2.40
2023-04-26T03:23:02.774Z,2.90
2023-04-26T03:25:31.132Z,2.57
2023-04-26T03:27:59.500Z,2.90
2023-04-26T03:30:28.323Z,2.80
2023-04-26T03:32:58.148Z,3.40
2023-04-26T03:35:26.630Z,2.80
2023-04-26T03:37:57.262Z,2.73
2023-04-26T03:40:30.203Z,3.07
2023-04-26T03:42:58.610Z,2.70
2023-04-26T03:45:27.199Z,2.40
2023-04-26T03:47:56.911Z,2.20
2023-04-26T03:50:25.534Z,2.60
2023-04-26T03:52:54.012Z,2.70
2023-04-26T03:55:22.444Z,2.70
2023-04-26T03:57:50.921Z,2.57
2023-04-26T04:00:19.320Z,2.67
2023-04-26T04:02:48.016Z,2.57
2023-04-26T04:05:17.934Z,2.30
2023-04-26T04:07:46.985Z,2.20
2023-04-26T04:10:25.409Z,2.00
2023-04-26T04:13:00.221Z,1.97
2023-04-26T04:15:28.754Z,1.93
2023-04-26T04:17:57.144Z,2.50
2023-04-26T04:20:26.944Z,2.40
2023-04-26T04:22:55.485Z,2.00
2023-04-26T04:25:24.851Z,2.60
2023-04-26T04:27:53.335Z,2.47
2023-04-26T04:30:21.732Z,2.20
2023-04-26T04:32:50.364Z,2.87
2023-04-26T04:35:18.941Z,2.50
2023-04-26T04:37:50.090Z,2.30
2023-04-26T04:40:21.331Z,2.30
2023-04-26T04:42:50.099Z,2.20
2023-04-26T04:45:19.074Z,2.67
2023-04-26T04:47:47.719Z,2.80
2023-04-26T04:50:16.559Z,2.23
2023-04-26T04:52:45.240Z,2.40
2023-04-26T04:55:15.084Z,2.23
2023-04-26T04:57:43.488Z,2.30
2023-04-26T05:00:13.680Z,2.40
2023-04-26T05:02:43.022Z,2.10
2023-04-26T05:05:12.168Z,2.40
2023-04-26T05:07:40.631Z,2.20
2023-04-26T05:10:09.845Z,2.40
2023-04-26T05:12:49.586Z,2.50
2023-04-26T05:15:18.075Z,5.83
2023-04-26T05:17:46.563Z,9.23
2023-04-26T05:20:15.239Z,2.83
2023-04-26T05:22:43.769Z,2.00
2023-04-26T05:25:13.482Z,1.90
2023-04-26T05:27:41.847Z,1.70
2023-04-26T05:30:12.931Z,2.20
2023-04-26T05:32:41.647Z,2.13
2023-04-26T05:35:10.603Z,2.37
2023-04-26T05:37:40.566Z,2.50
2023-04-26T05:40:12.365Z,2.37
2023-04-26T05:42:40.814Z,2.23
2023-04-26T05:45:11.939Z,1.90
2023-04-26T05:47:40.644Z,2.43
2023-04-26T05:50:10.315Z,2.53
2023-04-26T05:52:38.690Z,2.20
2023-04-26T05:55:08.254Z,2.50
2023-04-26T05:57:36.707Z,2.17
2023-04-26T06:00:09.453Z,2.47
2023-04-26T06:02:39.331Z,2.27
2023-04-26T06:05:08.733Z,2.10
2023-04-26T06:07:38.049Z,2.07
2023-04-26T06:10:08.561Z,2.10
2023-04-26T06:12:36.952Z,2.40
2023-04-26T06:15:07.655Z,2.43
2023-04-26T06:17:36.087Z,2.67
2023-04-26T06:20:07.215Z,2.43
2023-04-26T06:22:35.618Z,2.87
2023-04-26T06:25:05.741Z,2.90
2023-04-26T06:27:34.225Z,3.00
2023-04-26T06:30:02.833Z,2.70
2023-04-26T06:32:31.569Z,2.67
2023-04-26T06:35:01.133Z,3.20
2023-04-26T06:37:30.870Z,2.80
2023-04-26T06:39:59.328Z,2.97
2023-04-26T06:42:27.805Z,2.90
2023-04-26T06:44:56.636Z,2.90
2023-04-26T06:47:25.011Z,3.10
2023-04-26T06:49:53.349Z,2.90
2023-04-26T06:52:21.841Z,2.77
2023-04-26T06:54:56.936Z,3.33
2023-04-26T06:57:26.051Z,3.20
2023-04-26T06:59:54.605Z,3.30
2023-04-26T07:02:24.362Z,3.10
2023-04-26T07:04:53.278Z,3.33
2023-04-26T07:07:22.173Z,3.53
2023-04-26T07:09:51.888Z,3.17
2023-04-26T07:12:20.934Z,3.23
2023-04-26T07:14:49.330Z,3.33
2023-04-26T07:17:17.765Z,3.30
2023-04-26T07:19:46.218Z,3.13
2023-04-26T07:22:14.580Z,3.37
2023-04-26T07:24:42.930Z,3.20
2023-04-26T07:27:12.802Z,2.80
2023-04-26T07:29:41.198Z,3.20
2023-04-26T07:32:09.969Z,3.10
2023-04-26T07:34:38.436Z,3.53
2023-04-26T07:37:07.133Z,3.73
2023-04-26T07:39:36.473Z,3.70
2023-04-26T07:42:05.265Z,3.70
2023-04-26T07:44:35.130Z,3.33
2023-04-26T07:47:03.511Z,2.93
2023-04-26T07:49:31.982Z,3.43
2023-04-26T07:52:02.254Z,3.20
2023-04-26T07:54:30.918Z,3.60
2023-04-26T07:56:59.426Z,3.17
2023-04-26T07:59:27.960Z,3.57
2023-04-26T08:01:57.734Z,3.20
2023-04-26T08:04:33.578Z,4.03
2023-04-26T08:07:02.281Z,3.97
2023-04-26T08:09:32.053Z,3.87
2023-04-26T08:12:00.513Z,3.43
2023-04-26T08:14:30.206Z,3.70
2023-04-26T08:17:00.441Z,3.30
2023-04-26T08:19:31.670Z,3.53
2023-04-26T08:22:00.235Z,3.40
2023-04-26T08:24:31.038Z,4.17
2023-04-26T08:26:59.677Z,4.63
2023-04-26T08:29:29.059Z,4.00
2023-04-26T08:31:57.409Z,4.17
2023-04-26T08:34:28.347Z,3.20
2023-04-26T08:36:57.081Z,3.90
2023-04-26T08:39:25.591Z,3.60
2023-04-26T08:41:55.916Z,3.20
2023-04-26T08:44:25.704Z,3.30
2023-04-26T08:47:02.494Z,3.17
2023-04-26T08:49:40.965Z,3.30
2023-04-26T08:52:15.781Z,3.20
2023-04-26T08:54:44.418Z,3.50
2023-04-26T08:57:13.425Z,3.10
2023-04-26T08:59:44.283Z,3.77
2023-04-26T09:02:18.086Z,2.63
2023-04-26T09:04:49.154Z,3.23
2023-04-26T09:07:22.429Z,3.10
2023-04-26T09:09:51.855Z,4.13
2023-04-26T09:12:21.234Z,2.80
2023-04-26T09:14:50.053Z,2.87
2023-04-26T09:17:29.515Z,3.40
2023-04-26T09:19:59.659Z,3.20
2023-04-26T09:22:36.792Z,2.70
2023-04-26T09:25:07.001Z,3.10
2023-04-26T09:27:37.405Z,3.07
2023-04-26T09:30:11.423Z,3.10
2023-04-26T09:32:46.827Z,3.37
2023-04-26T09:35:23.351Z,3.17
2023-04-26T09:38:00.312Z,4.60
2023-04-26T09:40:31.268Z,3.50
2023-04-26T09:43:05.055Z,3.40
2023-04-26T09:45:35.107Z,4.03
2023-04-26T09:48:17.325Z,3.93
2023-04-26T09:50:47.402Z,2.90
2023-04-26T09:53:34.809Z,3.93
2023-04-26T09:56:11.528Z,2.63
2023-04-26T09:58:41.534Z,3.00
2023-04-26T10:01:11.835Z,2.90
2023-04-26T10:03:41.877Z,3.80
2023-04-26T10:06:13.358Z,4.43
2023-04-26T10:08:41.956Z,4.20
2023-04-26T10:11:11.475Z,4.70
2023-04-26T10:13:45.684Z,9.10
2023-04-26T10:16:14.060Z,4.70
2023-04-26T10:18:42.437Z,4.63
2023-04-26T10:21:17.681Z,5.33
2023-04-26T10:23:50.916Z,2.30
2023-04-26T10:26:54.785Z,1.57
2023-04-26T10:29:24.405Z,2.00
2023-04-26T10:32:12.036Z,3.97
2023-04-26T10:34:41.630Z,2.60
2023-04-26T10:37:16.057Z,2.97
2023-04-26T10:39:45.860Z,2.50
2023-04-26T10:42:25.467Z,2.87
2023-04-26T10:44:55.189Z,2.40
2023-04-26T10:47:30.476Z,2.00
2023-04-26T10:50:11.082Z,2.70
2023-04-26T10:53:07.503Z,3.03
2023-04-26T10:55:43.014Z,7.27
2023-04-26T10:58:30.222Z,4.17
2023-04-26T11:01:08.489Z,2.83
2023-04-26T11:03:37.673Z,3.60
2023-04-26T11:06:09.654Z,1.80
2023-04-26T11:08:39.424Z,2.30
2023-04-26T11:11:11.251Z,1.80
2023-04-26T11:13:41.409Z,1.90
2023-04-26T11:16:11.114Z,2.37
2023-04-26T11:18:42.016Z,2.00
2023-04-26T11:21:11.238Z,2.07
2023-04-26T11:23:41.495Z,2.40
2023-04-26T11:26:10.575Z,2.23
2023-04-26T11:28:40.151Z,3.10
2023-04-26T11:31:09.509Z,2.00
2023-04-26T11:33:43.388Z,1.60
2023-04-26T11:36:13.201Z,1.70
2023-04-26T11:38:43.111Z,1.50
2023-04-26T11:41:11.563Z,2.07
2023-04-26T11:43:40.692Z,2.13
2023-04-26T11:46:10.502Z,1.97
2023-04-26T11:48:40.889Z,1.90
2023-04-26T11:51:10.563Z,1.70
2023-04-26T11:53:40.309Z,1.63
2023-04-26T11:56:17.876Z,1.90
2023-04-26T11:58:47.684Z,1.73
2023-04-26T12:01:23.325Z,1.77
2023-04-26T12:03:53.660Z,1.87
2023-04-26T12:06:30.529Z,1.80
2023-04-26T12:08:58.971Z,1.77
2023-04-26T12:11:28.715Z,1.80
2023-04-26T12:13:59.889Z,1.77
2023-04-26T12:16:28.556Z,1.70
2023-04-26T12:18:57.712Z,1.90
2023-04-26T12:21:30.406Z,2.00
2023-04-26T12:23:59.234Z,2.03
2023-04-26T12:26:47.269Z,2.00
2023-04-26T12:29:19.129Z,1.50
2023-04-26T12:31:57.929Z,2.00
2023-04-26T12:34:26.751Z,2.20
2023-04-26T12:36:55.381Z,2.10
2023-04-26T12:39:24.183Z,1.50
2023-04-26T12:41:55.171Z,1.67
2023-04-26T12:44:23.586Z,1.90
2023-04-26T12:46:52.353Z,1.60
2023-04-26T12:49:21.105Z,1.60
2023-04-26T12:51:49.562Z,2.87
2023-04-26T12:54:17.993Z,6.20
2023-04-26T12:56:46.561Z,4.17
2023-04-26T12:59:16.460Z,1.53
2023-04-26T13:01:44.822Z,1.77
2023-04-26T13:04:13.525Z,1.60
2023-04-26T13:06:42.357Z,1.27
2023-04-26T13:09:13.812Z,1.70
2023-04-26T13:11:42.331Z,1.70
2023-04-26T13:14:13.119Z,1.60
2023-04-26T13:16:44.040Z,1.40
2023-04-26T13:19:12.774Z,1.80
2023-04-26T13:21:43.132Z,1.50
2023-04-26T13:24:12.678Z,1.60
2023-04-26T13:26:41.063Z,2.03
2023-04-26T13:29:10.598Z,1.80
2023-04-26T13:31:39.999Z,1.97
2023-04-26T13:34:13.599Z,1.87
2023-04-26T13:36:42.564Z,2.20
2023-04-26T13:39:12.461Z,1.90
2023-04-26T13:41:40.968Z,1.60
2023-04-26T13:44:14.304Z,1.90
2023-04-26T13:46:43.232Z,2.40
2023-04-26T13:49:14.565Z,2.00
2023-04-26T13:51:43.105Z,1.70
2023-04-26T13:54:12.739Z,1.77
2023-04-26T13:56:41.351Z,1.60
2023-04-26T13:59:09.731Z,1.60
2023-04-26T14:01:39.068Z,1.63
2023-04-26T14:04:07.859Z,1.40
2023-04-26T14:06:37.860Z,1.70
2023-04-26T14:09:06.997Z,1.67
2023-04-26T14:11:35.807Z,1.57
2023-04-26T14:14:04.295Z,1.70
2023-04-26T14:16:32.767Z,1.80
2023-04-26T14:19:02.790Z,1.67
2023-04-26T14:21:31.557Z,2.13
2023-04-26T14:24:01.316Z,1.83
2023-04-26T14:26:30.837Z,1.90
2023-04-26T14:28:59.385Z,1.60
2023-04-26T14:31:28.171Z,1.93
2023-04-26T14:33:56.686Z,1.87
2023-04-26T14:36:25.262Z,1.70
2023-04-26T14:38:53.636Z,1.70
2023-04-26T14:41:23.676Z,1.70
2023-04-26T14:43:52.170Z,1.70
2023-04-26T14:46:20.658Z,1.60
2023-04-26T14:48:49.103Z,1.80
2023-04-26T14:51:19.004Z,1.83
2023-04-26T14:53:47.458Z,1.93
2023-04-26T14:56:15.902Z,1.90
2023-04-26T14:58:45.686Z,1.70
2023-04-26T15:01:14.088Z,1.87
2023-04-26T15:03:42.661Z,1.50
2023-04-26T15:06:13.164Z,1.87
2023-04-26T15:08:41.616Z,3.50
2023-04-26T15:11:10.345Z,6.23
2023-04-26T15:13:41.379Z,2.17
2023-04-26T15:16:11.228Z,2.20
2023-04-26T15:18:39.777Z,1.90
2023-04-26T15:21:09.162Z,2.13
2023-04-26T15:23:37.582Z,2.10
2023-04-26T15:26:06.443Z,1.90
2023-04-26T15:28:34.832Z,1.90
2023-04-26T15:31:03.838Z,2.20
2023-04-26T15:33:33.685Z,1.50
2023-04-26T15:36:02.132Z,1.97
2023-04-26T15:38:30.760Z,2.40
2023-04-26T15:40:59.238Z,2.20
2023-04-26T15:43:27.796Z,1.80
2023-04-26T15:45:56.544Z,2.50
2023-04-26T15:48:26.128Z,2.63
2023-04-26T15:50:56.910Z,2.10
2023-04-26T15:53:25.722Z,2.10
2023-04-26T15:55:54.189Z,2.43
2023-04-26T15:58:22.560Z,2.13
2023-04-26T16:00:50.983Z,2.73
2023-04-26T16:03:19.818Z,2.40
2023-04-26T16:05:48.478Z,2.33
2023-04-26T16:08:39.227Z,3.13
2023-04-26T16:11:08.124Z,2.10
2023-04-26T16:13:37.260Z,3.07
2023-04-26T16:16:08.301Z,4.10
2023-04-26T16:18:36.751Z,2.87
2023-04-26T16:21:06.211Z,2.40
2023-04-26T16:23:36.269Z,2.63
2023-04-26T16:26:05.041Z,2.37
2023-04-26T16:28:33.702Z,2.57
2023-04-26T16:31:02.328Z,2.50
2023-04-26T16:33:30.908Z,2.27
2023-04-26T16:35:59.301Z,4.80
2023-04-26T16:38:27.855Z,3.03
2023-04-26T16:40:58.683Z,2.60
2023-04-26T16:43:27.917Z,2.80
2023-04-26T16:46:00.301Z,3.00
2023-04-26T16:48:31.188Z,3.63
2023-04-26T16:50:59.780Z,3.33
2023-04-26T16:53:28.325Z,4.30
2023-04-26T16:55:58.191Z,3.80
2023-04-26T16:58:26.879Z,3.43
2023-04-26T17:00:55.235Z,4.37
2023-04-26T17:03:24.817Z,3.20
2023-04-26T17:05:53.435Z,3.20
2023-04-26T17:08:22.041Z,2.83
2023-04-26T17:10:51.766Z,3.43
2023-04-26T17:13:21.958Z,2.87
2023-04-26T17:15:51.216Z,3.20
2023-04-26T17:18:19.672Z,3.57
2023-04-26T17:20:52.850Z,3.80
2023-04-26T17:23:21.590Z,5.27
2023-04-26T17:25:50.018Z,3.93
2023-04-26T17:28:29.503Z,4.47
2023-04-26T17:30:57.926Z,4.77
2023-04-26T17:33:26.439Z,3.80
2023-04-26T17:35:54.853Z,3.50
2023-04-26T17:38:23.233Z,3.47
2023-04-26T17:40:53.388Z,3.37
2023-04-26T17:43:22.449Z,3.83
2023-04-26T17:45:52.310Z,3.80
2023-04-26T17:48:20.711Z,3.63
2023-04-26T17:50:49.161Z,3.40
2023-04-26T17:53:17.653Z,3.40
2023-04-26T17:55:46.452Z,3.37
2023-04-26T17:58:14.969Z,3.90
2023-04-26T18:00:43.411Z,3.53
2023-04-26T18:03:13.731Z,12.73
2023-04-26T18:05:42.437Z,4.00
2023-04-26T18:08:11.293Z,3.90
2023-04-26T18:10:39.859Z,4.93
2023-04-26T18:13:08.328Z,4.10
2023-04-26T18:15:36.715Z,3.80
2023-04-26T18:18:07.963Z,4.07
2023-04-26T18:20:38.098Z,3.40
2023-04-26T18:23:06.563Z,3.67
2023-04-26T18:25:35.002Z,3.90
2023-04-26T18:28:03.542Z,8.20
2023-04-26T18:30:32.111Z,7.63
2023-04-26T18:33:03.786Z,4.37
2023-04-26T18:35:32.219Z,3.43
2023-04-26T18:38:01.997Z,6.13
2023-04-26T18:40:30.457Z,3.07
2023-04-26T18:42:58.856Z,5.43
2023-04-26T18:45:27.232Z,6.20
2023-04-26T18:47:56.502Z,5.03
2023-04-26T18:50:24.994Z,4.40
2023-04-26T18:52:53.383Z,4.97
2023-04-26T18:55:23.377Z,4.40
2023-04-26T18:57:51.888Z,4.23
2023-04-26T19:00:21.439Z,4.43
2023-04-26T19:02:51.147Z,4.27
2023-04-26T19:05:29.790Z,3.37
2023-04-26T19:07:58.204Z,3.70
2023-04-26T19:10:28.106Z,3.57
2023-04-26T19:12:56.837Z,3.90
2023-04-26T19:15:25.256Z,3.77
2023-04-26T19:17:53.693Z,3.90
2023-04-26T19:20:22.276Z,4.10
2023-04-26T19:22:50.921Z,4.57
2023-04-26T19:25:22.931Z,4.33
2023-04-26T19:27:52.864Z,5.00
2023-04-26T19:30:22.092Z,4.53
2023-04-26T19:32:50.541Z,4.20
2023-04-26T19:35:19.089Z,3.90
2023-04-26T19:37:47.439Z,4.27
2023-04-26T19:40:16.017Z,4.33
2023-04-26T19:42:52.672Z,3.80
2023-04-26T19:45:21.515Z,9.40
2023-04-26T19:47:56.576Z,4.53
2023-04-26T19:50:25.002Z,4.40
2023-04-26T19:52:53.633Z,5.00
2023-04-26T19:55:22.272Z,4.43
2023-04-26T19:57:52.301Z,4.43
2023-04-26T20:00:20.765Z,4.10
2023-04-26T20:02:49.646Z,4.50
2023-04-26T20:05:18.430Z,4.07
2023-04-26T20:07:46.857Z,3.90
2023-04-26T20:10:16.872Z,4.90
2023-04-26T20:12:45.427Z,4.73
2023-04-26T20:15:18.052Z,4.13
2023-04-26T20:17:55.117Z,4.77
2023-04-26T20:20:24.263Z,4.77
2023-04-26T20:22:52.669Z,4.47
2023-04-26T20:25:21.361Z,4.20
2023-04-26T20:27:49.790Z,3.90
2023-04-26T20:30:19.550Z,4.30
2023-04-26T20:32:48.874Z,4.37
2023-04-26T20:35:17.625Z,3.97
2023-04-26T20:37:45.968Z,3.90
2023-04-26T20:40:14.723Z,4.63
2023-04-26T20:42:43.369Z,6.83
2023-04-26T20:45:12.578Z,9.20
2023-04-26T20:47:42.487Z,10.10
2023-04-26T20:50:11.873Z,6.80
2023-04-26T20:52:40.502Z,8.43
2023-04-26T20:55:09.503Z,7.40
2023-04-26T20:57:43.321Z,16.90
2023-04-26T21:00:13.124Z,15.47
2023-04-26T21:02:43.190Z,15.37
2023-04-26T21:05:11.808Z,10.00
2023-04-26T21:07:40.192Z,5.57
2023-04-26T21:10:09.701Z,13.30
2023-04-26T21:12:38.209Z,13.53
2023-04-26T21:15:07.923Z,7.43
2023-04-26T21:17:36.573Z,5.23
2023-04-26T21:20:07.284Z,6.50
2023-04-26T21:22:35.863Z,7.13
2023-04-26T21:25:09.007Z,6.10
2023-04-26T21:27:39.922Z,5.70
2023-04-26T21:30:09.542Z,6.50
2023-04-26T21:32:40.167Z,8.50
2023-04-26T21:35:11.490Z,6.40
2023-04-26T21:37:40.095Z,7.40
2023-04-26T21:40:09.697Z,6.50
2023-04-26T21:42:38.095Z,6.47
2023-04-26T21:45:08.033Z,6.70
2023-04-26T21:47:36.460Z,5.73
2023-04-26T21:50:06.374Z,3.60
2023-04-26T21:52:36.244Z,2.77
2023-04-26T21:55:05.048Z,2.90
2023-04-26T21:57:33.435Z,2.50
2023-04-26T22:00:01.948Z,2.50
2023-04-26T22:02:30.471Z,2.30
2023-04-26T22:04:59.166Z,2.70
2023-04-26T22:07:28.440Z,2.20
2023-04-26T22:09:58.189Z,2.90
2023-04-26T22:12:27.642Z,2.30
2023-04-26T22:14:56.438Z,2.47
2023-04-26T22:17:24.819Z,2.37
2023-04-26T22:19:55.490Z,2.60
2023-04-26T22:22:33.835Z,2.60
2023-04-26T22:25:03.550Z,2.67
2023-04-26T22:27:32.307Z,2.63
2023-04-26T22:30:06.280Z,2.13
2023-04-26T22:32:41.084Z,2.40
2023-04-26T22:35:09.746Z,2.43
2023-04-26T22:37:38.333Z,2.50
2023-04-26T22:40:11.393Z,2.40
2023-04-26T22:42:39.778Z,2.50
2023-04-26T22:45:09.494Z,2.60
2023-04-26T22:47:38.036Z,2.60
2023-04-26T22:50:07.589Z,2.53
2023-04-26T22:52:36.778Z,2.90
2023-04-26T22:55:05.728Z,2.43
2023-04-26T22:57:35.712Z,3.20
2023-04-26T23:00:05.262Z,3.87
2023-04-26T23:02:33.999Z,3.20
2023-04-26T23:05:12.377Z,3.77
2023-04-26T23:07:44.735Z,3.67
2023-04-26T23:10:13.390Z,3.30
2023-04-26T23:12:43.587Z,3.33
2023-04-26T23:15:12.687Z,3.20
2023-04-26T23:17:41.677Z,3.60
2023-04-26T23:20:12.762Z,3.60
2023-04-26T23:22:42.698Z,3.60
2023-04-26T23:25:11.723Z,3.73
2023-04-26T23:27:40.268Z,3.43
2023-04-26T23:30:10.877Z,3.57
2023-04-26T23:32:39.321Z,3.20
2023-04-26T23:35:08.754Z,3.17
2023-04-26T23:37:37.248Z,3.10
2023-04-26T23:40:09.757Z,3.27
2023-04-26T23:42:38.325Z,2.87
2023-04-26T23:45:07.837Z,2.87
2023-04-26T23:47:37.726Z,2.90
2023-04-26T23:50:07.459Z,2.70
2023-04-26T23:52:36.007Z,3.17
2023-04-26T23:55:12.118Z,3.33
2023-04-26T23:57:40.643Z,3.00
